Time;durP1;ratioP1;P1;durP2;ratioP2;P2;SDS_P1;SDS_P2;PMS_P1;PMS_P2;Temp;Humidity;BMP_temperature;BMP_pressure;BME280_temperature;BME280_humidity;BME280_pressure;Samples;Min_cycle;Max_cycle;Signal;HPM_P1;HPM_P2
2023/01/04 00:01:22;;;;;;;0.00;0.00;;;;;;;;;;5113124;28;20051;-80
2023/01/04 00:03:48;;;;;;;0.00;0.00;;;;;;;;;;5113250;28;20032;-82
2023/01/04 00:06:15;;;;;;;0.00;0.00;;;;;;;;;;5114271;28;20123;-81
2023/01/04 00:08:41;;;;;;;0.00;0.00;;;;;;;;;;5112947;28;20119;-81
2023/01/04 00:11:10;;;;;;;0.00;0.00;;;;;;;;;;5112671;28;20071;-81
2023/01/04 00:13:36;;;;;;;0.00;0.00;;;;;;;;;;5114389;28;20112;-81
2023/01/04 00:16:06;;;;;;;0.00;0.00;;;;;;;;;;5112853;28;20125;-81
2023/01/04 00:18:33;;;;;;;0.10;0.10;;;;;;;;;;5114205;28;20047;-82
2023/01/04 00:21:06;;;;;;;0.00;0.00;;;;;;;;;;5112558;28;20066;-82
2023/01/04 00:23:32;;;;;;;0.00;0.00;;;;;;;;;;5112744;28;20048;-81
2023/01/04 00:25:58;;;;;;;0.00;0.00;;;;;;;;;;5112319;28;20115;-80
2023/01/04 00:28:24;;;;;;;0.00;0.00;;;;;;;;;;5112617;28;20074;-81
2023/01/04 00:30:50;;;;;;;0.00;0.00;;;;;;;;;;5112392;28;20039;-81
2023/01/04 00:33:34;;;;;;;0.00;0.00;;;;;;;;;;5113602;28;20521;-81
2023/01/04 00:36:08;;;;;;;0.00;0.00;;;;;;;;;;5112094;28;20048;-79
2023/01/04 00:38:34;;;;;;;0.00;0.00;;;;;;;;;;5113809;28;20056;-78
2023/01/04 00:41:01;;;;;;;0.00;0.00;;;;;;;;;;5113511;28;20073;-79
2023/01/04 00:43:27;;;;;;;0.00;0.00;;;;;;;;;;5113829;28;20039;-78
2023/01/04 00:45:53;;;;;;;0.00;0.00;;;;;;;;;;5112018;28;20043;-78
2023/01/04 00:48:19;;;;;;;0.00;0.00;;;;;;;;;;5112186;28;20047;-78
2023/01/04 00:50:46;;;;;;;0.00;0.00;;;;;;;;;;5111881;28;20104;-78
2023/01/04 00:53:12;;;;;;;0.00;0.00;;;;;;;;;;5113474;28;20042;-79
2023/01/04 00:55:38;;;;;;;0.00;0.00;;;;;;;;;;5110917;28;20436;-78
2023/01/04 00:58:04;;;;;;;0.38;0.32;;;;;;;;;;5112028;28;20043;-79
2023/01/04 01:00:30;;;;;;;0.00;0.00;;;;;;;;;;5113441;28;20134;-78
2023/01/04 01:02:56;;;;;;;0.00;0.00;;;;;;;;;;5113395;28;20525;-78
2023/01/04 01:05:22;;;;;;;0.10;0.00;;;;;;;;;;5113101;28;20134;-78
2023/01/04 01:07:48;;;;;;;0.00;0.00;;;;;;;;;;5111954;28;20043;-79
2023/01/04 01:10:14;;;;;;;0.00;0.00;;;;;;;;;;5111881;28;20079;-78
2023/01/04 01:12:40;;;;;;;0.00;0.00;;;;;;;;;;5113207;28;20050;-78
2023/01/04 01:15:06;;;;;;;0.00;0.00;;;;;;;;;;5112844;28;20481;-78
2023/01/04 01:17:33;;;;;;;0.00;0.00;;;;;;;;;;5111954;28;20110;-78
2023/01/04 01:19:59;;;;;;;0.00;0.00;;;;;;;;;;5112719;28;20040;-78
2023/01/04 01:22:25;;;;;;;0.00;0.00;;;;;;;;;;5112992;28;20044;-78
2023/01/04 01:24:51;;;;;;;0.00;0.00;;;;;;;;;;5094641;28;20048;-79
2023/01/04 01:27:17;;;;;;;0.00;0.00;;;;;;;;;;5112805;28;20062;-79
2023/01/04 01:29:43;;;;;;;0.00;0.00;;;;;;;;;;5111394;28;20386;-78
2023/01/04 01:32:09;;;;;;;0.00;0.00;;;;;;;;;;5111300;28;20035;-78
2023/01/04 01:34:35;;;;;;;0.00;0.00;;;;;;;;;;5112440;28;20052;-78
2023/01/04 01:37:01;;;;;;;0.00;0.00;;;;;;;;;;5111465;28;20120;-78
2023/01/04 01:39:27;;;;;;;0.00;0.00;;;;;;;;;;5111611;28;20066;-78
2023/01/04 01:41:53;;;;;;;0.00;0.00;;;;;;;;;;5111409;28;20122;-78
2023/01/04 01:44:38;;;;;;;0.00;0.00;;;;;;;;;;5111307;28;20542;-78
2023/01/04 01:47:04;;;;;;;0.00;0.00;;;;;;;;;;5112403;28;20050;-78
2023/01/04 01:49:33;;;;;;;0.00;0.00;;;;;;;;;;5111272;28;20124;-79
2023/01/04 01:52:01;;;;;;;0.00;0.00;;;;;;;;;;5094117;28;20155;-79
2023/01/04 01:54:53;;;;;;;0.00;0.00;;;;;;;;;;5112593;28;20048;-81
2023/01/04 01:57:22;;;;;;;0.00;0.00;;;;;;;;;;5109586;28;20047;-80
2023/01/04 01:59:50;;;;;;;0.00;0.00;;;;;;;;;;5112557;28;20154;-80
2023/01/04 02:02:16;;;;;;;0.00;0.00;;;;;;;;;;5112234;28;20467;-80
2023/01/04 02:04:44;;;;;;;0.00;0.00;;;;;;;;;;5111350;28;20140;-80
2023/01/04 02:07:11;;;;;;;0.00;0.00;;;;;;;;;;5114310;28;20042;-80
2023/01/04 02:09:37;;;;;;;0.00;0.00;;;;;;;;;;5115396;28;20115;-80
2023/01/04 02:12:03;;;;;;;0.00;0.00;;;;;;;;;;5115265;28;20035;-80
2023/01/04 02:14:29;;;;;;;0.00;0.00;;;;;;;;;;5115202;28;20104;-81
2023/01/04 02:16:55;;;;;;;0.00;0.00;;;;;;;;;;5114930;28;20130;-80
2023/01/04 02:19:21;;;;;;;0.00;0.00;;;;;;;;;;5098173;28;20071;-80
2023/01/04 02:21:53;;;;;;;0.00;0.00;;;;;;;;;;5114864;28;20045;-80
2023/01/04 02:24:25;;;;;;;0.10;0.10;;;;;;;;;;5116303;28;20032;-80
2023/01/04 02:27:00;;;;;;;0.00;0.00;;;;;;;;;;5115022;28;20050;-80
2023/01/04 02:29:42;;;;;;;0.00;0.00;;;;;;;;;;5115095;28;20487;-80
2023/01/04 02:32:15;;;;;;;0.00;0.00;;;;;;;;;;5114874;28;20039;-80
2023/01/04 02:34:44;;;;;;;0.00;0.00;;;;;;;;;;5114708;28;20456;-80
2023/01/04 02:37:29;;;;;;;0.00;0.00;;;;;;;;;;5114879;28;20046;-80
2023/01/04 02:39:56;;;;;;;0.00;0.00;;;;;;;;;;5115420;28;20454;-80
2023/01/04 02:45:21;;;;;;;0.00;0.00;;;;;;;;;;5116083;28;20043;-80
2023/01/04 02:50:37;;;;;;;0.00;0.00;;;;;;;;;;5116117;28;20047;-80
2023/01/04 02:53:03;;;;;;;0.00;0.00;;;;;;;;;;5115924;28;20040;-80
2023/01/04 02:55:33;;;;;;;0.00;0.00;;;;;;;;;;5114307;28;20039;-80
2023/01/04 02:58:07;;;;;;;0.00;0.00;;;;;;;;;;5115614;28;20032;-80
2023/01/04 03:06:14;;;;;;;0.00;0.00;;;;;;;;;;5114483;28;20040;-80
2023/01/04 03:07:00;;;;;;;0.00;0.00;;;;;;;;;;5052730;28;20076;-80
2023/01/04 03:09:28;;;;;;;0.00;0.00;;;;;;;;;;5036200;28;20048;-80
2023/01/04 03:12:32;;;;;;;0.30;0.00;;;;;;;;;;5085544;28;20086;-80
2023/01/04 03:14:59;;;;;;;0.00;0.00;;;;;;;;;;5114236;28;20055;-79
2023/01/04 03:17:26;;;;;;;0.00;0.00;;;;;;;;;;5113969;28;20204;-80
2023/01/04 03:19:53;;;;;;;0.00;0.00;;;;;;;;;;5114804;28;20069;-80
2023/01/04 03:37:18;;;;;;;0.00;0.00;;;;;;;;;;5113646;28;20046;-80
2023/01/04 03:48:26;;;;;;;0.00;0.00;;;;;;;;;;5114029;28;20044;-80
2023/01/04 03:50:57;;;;;;;0.00;0.00;;;;;;;;;;5115133;28;20039;-80
2023/01/04 03:53:24;;;;;;;0.00;0.00;;;;;;;;;;5114913;28;20043;-81
2023/01/04 03:55:51;;;;;;;0.00;0.00;;;;;;;;;;5113394;28;20043;-80
2023/01/04 03:58:18;;;;;;;0.00;0.00;;;;;;;;;;5114588;28;20053;-80
2023/01/04 04:00:45;;;;;;;0.20;0.00;;;;;;;;;;5113707;28;20487;-80
2023/01/04 04:03:11;;;;;;;0.00;0.00;;;;;;;;;;5113450;28;20039;-80
2023/01/04 04:08:29;;;;;;;0.00;0.00;;;;;;;;;;5114915;28;20043;-80
2023/01/04 04:13:44;;;;;;;0.00;0.00;;;;;;;;;;5114795;28;20047;-80
2023/01/04 04:16:10;;;;;;;0.00;0.00;;;;;;;;;;5113806;28;20089;-80
2023/01/04 04:18:36;;;;;;;0.00;0.00;;;;;;;;;;5113179;28;20043;-80
2023/01/04 04:21:02;;;;;;;0.00;0.00;;;;;;;;;;5112968;28;20177;-80
2023/01/04 04:23:28;;;;;;;0.00;0.00;;;;;;;;;;5112695;28;20040;-80
2023/01/04 04:25:54;;;;;;;0.00;0.00;;;;;;;;;;5113076;28;20047;-80
2023/01/04 04:28:20;;;;;;;0.00;0.00;;;;;;;;;;5095604;28;20513;-80
2023/01/04 04:30:49;;;;;;;0.00;0.00;;;;;;;;;;5113004;28;20039;-80
2023/01/04 04:33:15;;;;;;;0.00;0.00;;;;;;;;;;5113714;28;20067;-80
2023/01/04 04:35:41;;;;;;;0.00;0.00;;;;;;;;;;5112419;28;20147;-80
2023/01/04 04:38:07;;;;;;;0.00;0.00;;;;;;;;;;5112360;28;20375;-79
2023/01/04 04:43:17;;;;;;;0.00;0.00;;;;;;;;;;5113505;28;20483;-80
2023/01/04 04:45:43;;;;;;;0.00;0.00;;;;;;;;;;5113677;28;20479;-80
2023/01/04 04:48:09;;;;;;;0.00;0.00;;;;;;;;;;5113438;28;20051;-80
2023/01/04 04:50:35;;;;;;;0.00;0.00;;;;;;;;;;5112225;28;20073;-80
2023/01/04 04:53:01;;;;;;;0.00;0.00;;;;;;;;;;5112005;28;20039;-80
2023/01/04 04:55:27;;;;;;;0.05;0.00;;;;;;;;;;5112054;28;20401;-80
2023/01/04 04:57:53;;;;;;;0.00;0.00;;;;;;;;;;5111926;28;20097;-81
2023/01/04 05:00:19;;;;;;;0.10;0.00;;;;;;;;;;5113638;28;20040;-81
2023/01/04 05:02:45;;;;;;;0.00;0.00;;;;;;;;;;5112060;28;20039;-80
2023/01/04 05:05:11;;;;;;;0.00;0.00;;;;;;;;;;5111786;28;20499;-80
2023/01/04 05:07:37;;;;;;;0.00;0.00;;;;;;;;;;5113296;28;20097;-80
2023/01/04 05:10:03;;;;;;;0.00;0.00;;;;;;;;;;5113442;28;20047;-81
2023/01/04 05:15:14;;;;;;;0.00;0.00;;;;;;;;;;5113174;28;20126;-80
2023/01/04 05:17:40;;;;;;;0.00;0.00;;;;;;;;;;5111395;28;20114;-81
2023/01/04 05:20:06;;;;;;;0.00;0.00;;;;;;;;;;5111695;28;20063;-80
2023/01/04 05:22:32;;;;;;;0.00;0.00;;;;;;;;;;5112900;28;20042;-80
2023/01/04 05:24:58;;;;;;;0.00;0.00;;;;;;;;;;5111927;28;20339;-80
2023/01/04 05:27:24;;;;;;;0.00;0.00;;;;;;;;;;5111655;28;20135;-80
2023/01/04 05:32:34;;;;;;;0.00;0.00;;;;;;;;;;5112438;28;20131;-81
2023/01/04 05:35:00;;;;;;;0.10;0.08;;;;;;;;;;5112569;28;20122;-82
2023/01/04 05:37:26;;;;;;;0.00;0.00;;;;;;;;;;5111251;28;20040;-80
2023/01/04 05:39:52;;;;;;;0.00;0.00;;;;;;;;;;5111501;28;20059;-80
2023/01/04 05:42:24;;;;;;;0.10;0.00;;;;;;;;;;5111072;28;20092;-80
2023/01/04 05:44:51;;;;;;;0.00;0.00;;;;;;;;;;5111242;28;20045;-80
2023/01/04 05:47:17;;;;;;;0.00;0.00;;;;;;;;;;5111665;28;20043;-81
2023/01/04 05:49:43;;;;;;;0.00;0.00;;;;;;;;;;5111314;28;20039;-80
2023/01/04 05:52:09;;;;;;;0.00;0.00;;;;;;;;;;5112738;28;20289;-80
2023/01/04 05:54:35;;;;;;;0.00;0.00;;;;;;;;;;5110840;28;20054;-81
2023/01/04 05:57:01;;;;;;;0.00;0.00;;;;;;;;;;5112530;28;20403;-80
2023/01/04 05:59:27;;;;;;;0.00;0.00;;;;;;;;;;5112172;28;20035;-80
2023/01/04 06:01:53;;;;;;;0.10;0.03;;;;;;;;;;5111406;28;20051;-81
2023/01/04 06:04:19;;;;;;;0.00;0.00;;;;;;;;;;5112382;28;20215;-80
2023/01/04 06:06:45;;;;;;;0.00;0.00;;;;;;;;;;5111179;28;20184;-80
2023/01/04 06:09:11;;;;;;;0.00;0.00;;;;;;;;;;5112329;28;20359;-80
2023/01/04 06:11:37;;;;;;;0.00;0.00;;;;;;;;;;5111181;28;20144;-81
2023/01/04 06:14:03;;;;;;;0.00;0.00;;;;;;;;;;5093759;28;20047;-80
2023/01/04 06:16:29;;;;;;;0.35;0.10;;;;;;;;;;5111233;28;20036;-80
2023/01/04 06:18:55;;;;;;;0.00;0.00;;;;;;;;;;5112146;28;20039;-80
2023/01/04 06:21:21;;;;;;;0.00;0.00;;;;;;;;;;5111209;28;20176;-80
2023/01/04 06:23:47;;;;;;;0.00;0.00;;;;;;;;;;5112119;28;20047;-81
2023/01/04 06:26:13;;;;;;;0.00;0.00;;;;;;;;;;5111226;28;20051;-80
2023/01/04 06:28:39;;;;;;;0.00;0.00;;;;;;;;;;5111876;28;20088;-80
2023/01/04 06:31:06;;;;;;;0.00;0.00;;;;;;;;;;5112400;28;20035;-80
2023/01/04 06:33:32;;;;;;;0.00;0.00;;;;;;;;;;5111970;28;20101;-80
2023/01/04 06:35:58;;;;;;;0.00;0.00;;;;;;;;;;5111869;28;20039;-80
2023/01/04 06:38:24;;;;;;;0.00;0.00;;;;;;;;;;5112056;28;20046;-80
2023/01/04 06:40:50;;;;;;;0.00;0.00;;;;;;;;;;5110803;28;20476;-80
2023/01/04 06:43:16;;;;;;;0.00;0.00;;;;;;;;;;5110500;28;20044;-80
2023/01/04 06:45:43;;;;;;;0.00;0.00;;;;;;;;;;5112319;28;20067;-80
2023/01/04 06:48:09;;;;;;;0.00;0.00;;;;;;;;;;5112001;28;20039;-80
2023/01/04 06:50:35;;;;;;;0.00;0.00;;;;;;;;;;5112096;28;20048;-80
2023/01/04 06:53:01;;;;;;;0.00;0.00;;;;;;;;;;5112029;28;20486;-81
2023/01/04 06:55:28;;;;;;;0.00;0.00;;;;;;;;;;5114378;28;20040;-80
2023/01/04 06:57:54;;;;;;;0.65;0.10;;;;;;;;;;5114348;28;20050;-80
2023/01/04 07:00:20;;;;;;;0.00;0.00;;;;;;;;;;5114446;28;20100;-80
2023/01/04 07:02:46;;;;;;;0.00;0.00;;;;;;;;;;5115650;28;20042;-80
2023/01/04 07:05:12;;;;;;;0.00;0.00;;;;;;;;;;5114258;28;20043;-80
2023/01/04 07:07:38;;;;;;;0.00;0.00;;;;;;;;;;5115743;28;20092;-83
2023/01/04 07:10:05;;;;;;;0.00;0.00;;;;;;;;;;5113807;28;20134;-82
2023/01/04 07:12:31;;;;;;;0.00;0.00;;;;;;;;;;5114359;28;20097;-82
2023/01/04 07:14:57;;;;;;;0.00;0.00;;;;;;;;;;5109533;28;20501;-81
2023/01/04 07:17:23;;;;;;;0.00;0.00;;;;;;;;;;5110554;28;20050;-80
2023/01/04 07:19:49;;;;;;;0.00;0.00;;;;;;;;;;5093410;28;20048;-80
2023/01/04 07:22:15;;;;;;;0.00;0.00;;;;;;;;;;5111629;28;20039;-81
2023/01/04 07:24:42;;;;;;;0.00;0.00;;;;;;;;;;5113228;28;20039;-84
2023/01/04 07:27:09;;;;;;;0.00;0.00;;;;;;;;;;5113957;28;20047;-81
2023/01/04 07:29:36;;;;;;;0.08;0.00;;;;;;;;;;5113334;28;20475;-81
2023/01/04 07:32:02;;;;;;;0.00;0.00;;;;;;;;;;5115113;28;20044;-81
2023/01/04 07:34:28;;;;;;;0.00;0.00;;;;;;;;;;5114507;28;20134;-82
2023/01/04 07:36:54;;;;;;;0.10;0.10;;;;;;;;;;5113751;28;20051;-81
2023/01/04 07:39:21;;;;;;;0.00;0.00;;;;;;;;;;5114614;28;20047;-85
2023/01/04 07:41:47;;;;;;;0.00;0.00;;;;;;;;;;5113651;28;20043;-80
2023/01/04 07:44:14;;;;;;;0.00;0.00;;;;;;;;;;5113513;28;20543;-81
2023/01/04 07:46:41;;;;;;;0.00;0.00;;;;;;;;;;5113691;28;20075;-81
2023/01/04 07:49:11;;;;;;;0.00;0.00;;;;;;;;;;5113431;28;20054;-81
2023/01/04 07:51:37;;;;;;;0.00;0.00;;;;;;;;;;5113455;28;20043;-81
2023/01/04 07:54:03;;;;;;;0.00;0.00;;;;;;;;;;5114291;28;20046;-81
2023/01/04 07:56:29;;;;;;;0.10;0.00;;;;;;;;;;5113179;28;20042;-80
2023/01/04 07:58:56;;;;;;;0.00;0.00;;;;;;;;;;5113100;28;20513;-80
2023/01/04 08:01:23;;;;;;;0.00;0.00;;;;;;;;;;5113288;28;20040;-80
2023/01/04 08:03:50;;;;;;;0.00;0.00;;;;;;;;;;5113067;28;20439;-81
2023/01/04 08:06:16;;;;;;;0.00;0.00;;;;;;;;;;5112931;28;20058;-81
2023/01/04 08:08:42;;;;;;;0.00;0.00;;;;;;;;;;5111294;28;20031;-81
2023/01/04 08:11:10;;;;;;;0.00;0.00;;;;;;;;;;5114217;28;20044;-81
2023/01/04 08:13:36;;;;;;;0.00;0.00;;;;;;;;;;5109317;28;20044;-81
2023/01/04 08:16:02;;;;;;;0.00;0.00;;;;;;;;;;5092225;28;20101;-81
2023/01/04 08:18:28;;;;;;;0.00;0.00;;;;;;;;;;5092407;28;20035;-80
2023/01/04 08:21:01;;;;;;;0.00;0.00;;;;;;;;;;5092420;28;20050;-80
2023/01/04 08:23:27;;;;;;;0.00;0.00;;;;;;;;;;5093599;28;20089;-80
2023/01/04 08:25:53;;;;;;;0.00;0.00;;;;;;;;;;5091979;28;20048;-80
2023/01/04 08:28:19;;;;;;;0.00;0.00;;;;;;;;;;5102581;28;20120;-81
2023/01/04 08:30:45;;;;;;;0.00;0.00;;;;;;;;;;5110355;28;20043;-87
2023/01/04 08:33:14;;;;;;;0.00;0.00;;;;;;;;;;5106899;28;20058;-83
2023/01/04 08:35:40;;;;;;;0.00;0.00;;;;;;;;;;5091731;28;20062;-81
2023/01/04 08:38:06;;;;;;;0.00;0.00;;;;;;;;;;5093513;28;20221;-81
2023/01/04 08:40:32;;;;;;;0.00;0.00;;;;;;;;;;5091636;28;20147;-81
2023/01/04 08:42:58;;;;;;;0.00;0.00;;;;;;;;;;5092058;28;20119;-80
2023/01/04 08:45:24;;;;;;;0.00;0.00;;;;;;;;;;5091893;28;20052;-80
2023/01/04 08:47:50;;;;;;;0.10;0.00;;;;;;;;;;5091870;28;20048;-80
2023/01/04 08:50:19;;;;;;;0.00;0.00;;;;;;;;;;5091832;28;20048;-80
2023/01/04 08:52:45;;;;;;;0.00;0.00;;;;;;;;;;5091841;28;20052;-80
2023/01/04 08:55:11;;;;;;;0.00;0.00;;;;;;;;;;5092931;28;20093;-80
2023/01/04 08:57:37;;;;;;;0.00;0.00;;;;;;;;;;5093032;28;20143;-80
2023/01/04 09:00:03;;;;;;;0.00;0.00;;;;;;;;;;5091396;28;20372;-80
2023/01/04 09:02:29;;;;;;;0.00;0.00;;;;;;;;;;5091746;28;20040;-80
2023/01/04 09:04:58;;;;;;;0.00;0.00;;;;;;;;;;5091181;28;20101;-81
2023/01/04 09:07:31;;;;;;;0.00;0.00;;;;;;;;;;5074657;28;20058;-80
2023/01/04 09:09:59;;;;;;;0.00;0.00;;;;;;;;;;5074589;28;20076;-80
2023/01/04 09:12:25;;;;;;;0.00;0.00;;;;;;;;;;5092809;28;20048;-81
2023/01/04 09:14:51;;;;;;;0.00;0.00;;;;;;;;;;5090995;28;20044;-81
2023/01/04 09:17:17;;;;;;;0.00;0.00;;;;;;;;;;5090636;28;20040;-81
2023/01/04 09:19:43;;;;;;;0.00;0.00;;;;;;;;;;5092379;28;20123;-80
2023/01/04 09:22:09;;;;;;;0.00;0.00;;;;;;;;;;5092674;28;20036;-81
2023/01/04 09:24:35;;;;;;;0.00;0.00;;;;;;;;;;5074593;28;20097;-81
2023/01/04 09:27:03;;;;;;;0.10;0.00;;;;;;;;;;5074631;28;20506;-80
2023/01/04 09:29:29;;;;;;;0.00;0.00;;;;;;;;;;5091538;28;20044;-81
2023/01/04 09:31:55;;;;;;;0.17;0.15;;;;;;;;;;5091331;28;20054;-81
2023/01/04 09:34:21;;;;;;;0.00;0.00;;;;;;;;;;5090955;28;20136;-81
2023/01/04 09:36:49;;;;;;;0.00;0.00;;;;;;;;;;5091260;28;20044;-81
2023/01/04 09:39:16;;;;;;;0.00;0.00;;;;;;;;;;5074450;28;20048;-81
2023/01/04 09:42:04;;;;;;;0.00;0.00;;;;;;;;;;5091151;28;20036;-81
2023/01/04 09:44:41;;;;;;;0.00;0.00;;;;;;;;;;5092410;28;20052;-80
2023/01/04 09:47:10;;;;;;;0.00;0.00;;;;;;;;;;5090950;28;20123;-81
2023/01/04 09:49:36;;;;;;;0.00;0.00;;;;;;;;;;5091194;28;20044;-81
2023/01/04 09:52:23;;;;;;;0.00;0.00;;;;;;;;;;5074435;28;20109;-81
2023/01/04 09:55:00;;;;;;;0.00;0.00;;;;;;;;;;5092135;28;20040;-81
2023/01/04 09:57:29;;;;;;;0.00;0.00;;;;;;;;;;5090924;28;20063;-81
2023/01/04 09:59:57;;;;;;;0.00;0.00;;;;;;;;;;5092349;28;20075;-81
2023/01/04 10:02:25;;;;;;;0.00;0.00;;;;;;;;;;5074264;28;20044;-81
2023/01/04 10:04:51;;;;;;;0.00;0.00;;;;;;;;;;5091168;28;20117;-81
2023/01/04 10:07:24;;;;;;;0.00;0.00;;;;;;;;;;5090985;28;20070;-81
2023/01/04 10:09:50;;;;;;;0.00;0.00;;;;;;;;;;5092281;28;20048;-81
2023/01/04 10:12:16;;;;;;;0.00;0.00;;;;;;;;;;5092036;28;20040;-81
2023/01/04 10:14:52;;;;;;;0.00;0.00;;;;;;;;;;5091007;28;20040;-82
2023/01/04 10:17:38;;;;;;;0.00;0.00;;;;;;;;;;5074069;28;20071;-81
2023/01/04 10:20:23;;;;;;;0.00;0.00;;;;;;;;;;5090811;28;20048;-82
2023/01/04 10:23:07;;;;;;;0.00;0.00;;;;;;;;;;5090814;28;20039;-80
2023/01/04 10:25:46;;;;;;;0.10;0.00;;;;;;;;;;5091001;28;20113;-79
2023/01/04 10:28:25;;;;;;;0.00;0.00;;;;;;;;;;5092972;28;20044;-84
2023/01/04 10:30:57;;;;;;;0.00;0.00;;;;;;;;;;5094989;28;20119;-80
2023/01/04 10:33:38;;;;;;;0.10;0.00;;;;;;;;;;5106878;28;20051;-80
2023/01/04 10:36:13;;;;;;;0.00;0.00;;;;;;;;;;5114840;28;20059;-80
2023/01/04 10:38:40;;;;;;;0.00;0.00;;;;;;;;;;5115180;28;20071;-80
2023/01/04 10:41:10;;;;;;;0.00;0.00;;;;;;;;;;5115024;28;20040;-80
2023/01/04 10:43:36;;;;;;;0.00;0.00;;;;;;;;;;5116517;28;20040;-80
2023/01/04 10:46:09;;;;;;;0.00;0.00;;;;;;;;;;5116297;28;20054;-80
2023/01/04 10:48:44;;;;;;;0.00;0.00;;;;;;;;;;5115193;28;20031;-80
2023/01/04 10:51:11;;;;;;;0.00;0.00;;;;;;;;;;5116302;28;20039;-80
2023/01/04 10:53:37;;;;;;;0.00;0.00;;;;;;;;;;5116491;28;20039;-79
2023/01/04 10:56:06;;;;;;;0.00;0.00;;;;;;;;;;5114735;28;20042;-81
2023/01/04 10:58:32;;;;;;;0.00;0.00;;;;;;;;;;5116053;28;20038;-84
2023/01/04 11:01:11;;;;;;;0.00;0.00;;;;;;;;;;5110887;28;20032;-81
2023/01/04 11:03:39;;;;;;;0.00;0.00;;;;;;;;;;5114497;28;20032;-81
2023/01/04 11:06:14;;;;;;;1.75;0.30;;;;;;;;;;5115491;28;20439;-81
2023/01/04 11:08:52;;;;;;;0.00;0.00;;;;;;;;;;5104143;28;20464;-81
2023/01/04 11:11:24;;;;;;;0.00;0.00;;;;;;;;;;5110986;28;20048;-81
2023/01/04 11:13:50;;;;;;;0.00;0.00;;;;;;;;;;5095259;28;20047;-81
2023/01/04 11:16:16;;;;;;;0.00;0.00;;;;;;;;;;5095023;28;20044;-81
2023/01/04 11:18:43;;;;;;;0.00;0.00;;;;;;;;;;5103518;28;20039;-81
2023/01/04 11:21:11;;;;;;;0.00;0.00;;;;;;;;;;5113826;28;20039;-81
2023/01/04 11:23:38;;;;;;;0.00;0.00;;;;;;;;;;5110555;28;20115;-82
2023/01/04 11:26:08;;;;;;;0.00;0.00;;;;;;;;;;5094656;28;20047;-81
2023/01/04 11:28:51;;;;;;;0.10;0.00;;;;;;;;;;5108240;28;20055;-81
2023/01/04 11:31:35;;;;;;;0.00;0.00;;;;;;;;;;5110634;28;20059;-81
2023/01/04 11:34:02;;;;;;;0.00;0.00;;;;;;;;;;5094212;28;20063;-81
2023/01/04 11:36:33;;;;;;;0.00;0.00;;;;;;;;;;5093273;28;20047;-81
2023/01/04 11:38:59;;;;;;;0.38;0.20;;;;;;;;;;5092763;28;20068;-82
2023/01/04 11:41:25;;;;;;;0.00;0.00;;;;;;;;;;5094619;28;20169;-81
2023/01/04 11:43:59;;;;;;;0.00;0.00;;;;;;;;;;5093503;28;20361;-81
2023/01/04 11:46:25;;;;;;;0.00;0.00;;;;;;;;;;5093054;28;20048;-81
2023/01/04 11:48:52;;;;;;;0.15;0.03;;;;;;;;;;5093286;28;20120;-82
2023/01/04 11:51:30;;;;;;;0.00;0.00;;;;;;;;;;5092821;28;20050;-81
2023/01/04 11:53:56;;;;;;;0.00;0.00;;;;;;;;;;5093335;28;20069;-81
2023/01/04 11:56:24;;;;;;;0.00;0.00;;;;;;;;;;5092844;28;20519;-81
2023/01/04 11:59:08;;;;;;;0.00;0.00;;;;;;;;;;5101909;28;20153;-81
2023/01/04 12:01:36;;;;;;;0.00;0.00;;;;;;;;;;5113148;28;20050;-81
2023/01/04 12:04:03;;;;;;;0.00;0.00;;;;;;;;;;5106416;28;20043;-81
2023/01/04 12:06:41;;;;;;;0.00;0.00;;;;;;;;;;5111623;28;20116;-81
2023/01/04 12:09:17;;;;;;;0.00;0.00;;;;;;;;;;5103107;28;20062;-81
2023/01/04 12:11:45;;;;;;;0.00;0.00;;;;;;;;;;5109648;28;20039;-81
2023/01/04 12:14:19;;;;;;;0.00;0.00;;;;;;;;;;5109074;28;20047;-81
2023/01/04 12:16:52;;;;;;;0.00;0.00;;;;;;;;;;5112774;28;20043;-81
2023/01/04 12:19:19;;;;;;;0.00;0.00;;;;;;;;;;5103432;28;20474;-81
2023/01/04 12:21:46;;;;;;;0.00;0.00;;;;;;;;;;5108597;28;20051;-81
2023/01/04 12:24:18;;;;;;;0.00;0.00;;;;;;;;;;5096170;28;20103;-82
2023/01/04 12:26:44;;;;;;;0.00;0.00;;;;;;;;;;5112551;28;20039;-81
2023/01/04 12:29:29;;;;;;;0.00;0.00;;;;;;;;;;5098087;28;20032;-81
2023/01/04 12:32:01;;;;;;;0.00;0.00;;;;;;;;;;5112467;28;20039;-81
2023/01/04 12:34:30;;;;;;;0.00;0.00;;;;;;;;;;5107837;28;20161;-80
2023/01/04 12:36:57;;;;;;;0.00;0.00;;;;;;;;;;5102362;28;20080;-81
2023/01/04 12:39:27;;;;;;;0.00;0.00;;;;;;;;;;5106653;28;20047;-81
2023/01/04 12:41:59;;;;;;;0.00;0.00;;;;;;;;;;5100168;28;20386;-82
2023/01/04 12:44:37;;;;;;;0.00;0.00;;;;;;;;;;5081668;28;20043;-81
2023/01/04 12:50:03;;;;;;;0.00;0.00;;;;;;;;;;5113811;28;20043;-81
2023/01/04 12:52:29;;;;;;;0.00;0.00;;;;;;;;;;5106272;28;20214;-80
2023/01/04 12:54:57;;;;;;;0.00;0.00;;;;;;;;;;5099608;28;20135;-80
2023/01/04 12:57:23;;;;;;;0.00;0.00;;;;;;;;;;5107472;28;20085;-81
2023/01/04 12:59:55;;;;;;;0.00;0.00;;;;;;;;;;5112311;28;20134;-81
2023/01/04 13:02:28;;;;;;;0.00;0.00;;;;;;;;;;5113090;28;20123;-81
2023/01/04 13:05:03;;;;;;;0.00;0.00;;;;;;;;;;5111903;28;20123;-81
2023/01/04 13:07:41;;;;;;;0.00;0.00;;;;;;;;;;5111838;28;20202;-81
2023/01/04 13:10:33;;;;;;;0.00;0.00;;;;;;;;;;5113358;28;20042;-81
2023/01/04 13:13:05;;;;;;;0.00;0.00;;;;;;;;;;5088761;28;20256;-80
2023/01/04 13:15:46;;;;;;;0.10;0.05;;;;;;;;;;5111858;28;20039;-81
2023/01/04 13:18:22;;;;;;;0.00;0.00;;;;;;;;;;5094668;28;20423;-80
2023/01/04 13:20:48;;;;;;;0.10;0.00;;;;;;;;;;5095028;28;20079;-81
2023/01/04 13:23:14;;;;;;;0.00;0.00;;;;;;;;;;5111532;28;20046;-80
2023/01/04 13:25:40;;;;;;;0.00;0.00;;;;;;;;;;5111607;28;20035;-81
2023/01/04 13:28:06;;;;;;;0.00;0.00;;;;;;;;;;5111631;28;20486;-81
2023/01/04 13:30:34;;;;;;;0.00;0.00;;;;;;;;;;5112912;28;20046;-81
2023/01/04 13:33:07;;;;;;;0.00;0.00;;;;;;;;;;5112584;28;20456;-81
2023/01/04 13:35:33;;;;;;;0.00;0.00;;;;;;;;;;5111543;28;20048;-81
2023/01/04 13:37:59;;;;;;;0.00;0.00;;;;;;;;;;5112933;28;20496;-81
2023/01/04 13:40:27;;;;;;;0.00;0.00;;;;;;;;;;5111829;28;20093;-81
2023/01/04 13:43:02;;;;;;;0.00;0.00;;;;;;;;;;5112425;28;20491;-81
2023/01/04 13:45:45;;;;;;;0.00;0.00;;;;;;;;;;5111489;28;20156;-80
2023/01/04 13:48:12;;;;;;;0.30;0.17;;;;;;;;;;5111168;28;20107;-82
2023/01/04 13:50:45;;;;;;;0.20;0.00;;;;;;;;;;5111596;28;20369;-80
2023/01/04 13:53:25;;;;;;;0.00;0.00;;;;;;;;;;5111372;28;20050;-80
2023/01/04 13:55:59;;;;;;;0.00;0.00;;;;;;;;;;5111314;28;20069;-81
2023/01/04 13:58:29;;;;;;;0.00;0.00;;;;;;;;;;5112424;28;20062;-81
2023/01/04 14:00:55;;;;;;;0.00;0.00;;;;;;;;;;5111831;28;20078;-81
2023/01/04 14:03:26;;;;;;;0.00;0.00;;;;;;;;;;5113724;28;20071;-81
2023/01/04 14:05:54;;;;;;;0.00;0.00;;;;;;;;;;5115627;28;20043;-81
2023/01/04 14:08:27;;;;;;;0.00;0.00;;;;;;;;;;5115576;28;20123;-81
2023/01/04 14:10:53;;;;;;;0.00;0.00;;;;;;;;;;5115399;28;20050;-80
2023/01/04 14:13:20;;;;;;;0.00;0.00;;;;;;;;;;5116744;28;20036;-81
2023/01/04 14:15:46;;;;;;;0.00;0.00;;;;;;;;;;5115260;28;20122;-81
2023/01/04 14:18:28;;;;;;;0.00;0.00;;;;;;;;;;5115011;28;20394;-81
2023/01/04 14:20:54;;;;;;;0.00;0.00;;;;;;;;;;5116460;28;20504;-81
2023/01/04 14:23:47;;;;;;;0.00;0.00;;;;;;;;;;5115262;28;20524;-81
2023/01/04 14:26:30;;;;;;;0.00;0.00;;;;;;;;;;5112458;28;20054;-82
2023/01/04 14:28:56;;;;;;;0.05;0.03;;;;;;;;;;5116400;28;20114;-80
2023/01/04 14:31:26;;;;;;;0.00;0.00;;;;;;;;;;5115148;28;20143;-81
2023/01/04 14:33:52;;;;;;;0.00;0.00;;;;;;;;;;5116030;28;20056;-81
2023/01/04 14:36:25;;;;;;;0.00;0.00;;;;;;;;;;5115071;28;20054;-81
2023/01/04 14:38:51;;;;;;;0.00;0.00;;;;;;;;;;5114961;28;20104;-81
2023/01/04 14:41:17;;;;;;;0.00;0.00;;;;;;;;;;5115018;28;20494;-81
2023/01/04 14:43:45;;;;;;;0.00;0.00;;;;;;;;;;5114450;28;20478;-81
2023/01/04 14:46:11;;;;;;;0.00;0.00;;;;;;;;;;5116054;28;20082;-82
2023/01/04 14:48:37;;;;;;;0.00;0.00;;;;;;;;;;5114620;28;20043;-81
2023/01/04 14:51:04;;;;;;;0.00;0.00;;;;;;;;;;5114704;28;20069;-81
2023/01/04 14:53:30;;;;;;;3.20;0.10;;;;;;;;;;5115719;28;20123;-81
2023/01/04 14:55:57;;;;;;;0.00;0.00;;;;;;;;;;5115840;28;20377;-81
2023/01/04 14:58:22;;;;;;;0.00;0.00;;;;;;;;;;5115728;28;20090;-81
2023/01/04 15:00:49;;;;;;;0.00;0.00;;;;;;;;;;5115901;28;20452;-81
2023/01/04 15:03:15;;;;;;;0.00;0.00;;;;;;;;;;5114472;28;20376;-81
2023/01/04 15:05:42;;;;;;;0.00;0.00;;;;;;;;;;5097387;28;20039;-81
2023/01/04 15:08:12;;;;;;;0.00;0.00;;;;;;;;;;5114580;28;20048;-81
2023/01/04 15:10:38;;;;;;;0.00;0.00;;;;;;;;;;5114412;28;20039;-81
2023/01/04 15:13:04;;;;;;;0.00;0.00;;;;;;;;;;5114219;28;20059;-81
2023/01/04 15:15:32;;;;;;;0.00;0.00;;;;;;;;;;5112860;28;20047;-81
2023/01/04 15:17:58;;;;;;;0.00;0.00;;;;;;;;;;5114276;28;20066;-81
2023/01/04 15:20:24;;;;;;;0.00;0.00;;;;;;;;;;5114037;28;20032;-82
2023/01/04 15:22:50;;;;;;;0.00;0.00;;;;;;;;;;5097243;28;20040;-82
2023/01/04 15:25:16;;;;;;;0.00;0.00;;;;;;;;;;5113772;28;20047;-81
2023/01/04 15:27:42;;;;;;;0.00;0.00;;;;;;;;;;5114392;28;20478;-81
2023/01/04 15:30:08;;;;;;;0.00;0.00;;;;;;;;;;5114071;28;20425;-81
2023/01/04 15:32:35;;;;;;;0.90;0.90;;;;;;;;;;5114044;28;20132;-81
2023/01/04 15:35:01;;;;;;;0.50;0.50;;;;;;;;;;5115091;28;20106;-81
2023/01/04 15:37:27;;;;;;;0.00;0.00;;;;;;;;;;5114237;28;20040;-81
2023/01/04 15:39:53;;;;;;;0.00;0.00;;;;;;;;;;5113841;28;20443;-81
2023/01/04 15:45:04;;;;;;;0.15;0.08;;;;;;;;;;5114992;28;20039;-81